Time;durP1;ratioP1;P1;durP2;ratioP2;P2;SDS_P1;SDS_P2;PMS_P1;PMS_P2;Temp;Humidity;BMP_temperature;BMP_pressure;BME280_temperature;BME280_humidity;BME280_pressure;Samples;Min_cycle;Max_cycle;Signal;HPM_P1;HPM_P2
2021/07/24 00:01:11;;;;;;;;;;;19.60;99.90;;;;;;4989580;28;20421;-66
2021/07/24 00:03:37;;;;;;;;;;;19.50;99.90;;;;;;4991025;28;19913;-66
2021/07/24 00:06:02;;;;;;;;;;;19.50;99.90;;;;;;4994707;28;20351;-66
2021/07/24 00:08:28;;;;;;;;;;;19.50;1.00;;;;;;4994313;28;20001;-66
2021/07/24 00:10:54;;;;;;;;;;;19.50;1.00;;;;;;4992809;28;19912;-65
2021/07/24 00:13:19;;;;;;;;;;;19.40;1.00;;;;;;4994293;28;19920;-66
2021/07/24 00:15:45;;;;;;;;;;;19.50;1.00;;;;;;4994147;28;19956;-66
2021/07/24 00:18:11;;;;;;;;;;;19.40;1.00;;;;;;4994223;28;20291;-66
2021/07/24 00:20:36;;;;;;;;;;;19.40;10.00;;;;;;4994418;28;19925;-66
2021/07/24 00:23:03;;;;;;;;;;;19.40;1.00;;;;;;4994624;28;19914;-65
2021/07/24 00:25:29;;;;;;;;;;;19.40;99.90;;;;;;4993855;28;20327;-66
2021/07/24 00:27:54;;;;;;;;;;;19.30;99.90;;;;;;4993940;28;19910;-65
2021/07/24 00:30:20;;;;;;;;;;;19.30;99.90;;;;;;4994119;28;20312;-66
2021/07/24 00:32:45;;;;;;;;;;;19.30;1.00;;;;;;4994318;28;19938;-66
2021/07/24 00:35:11;;;;;;;;;;;19.20;1.00;;;;;;4994038;28;19936;-66
2021/07/24 00:37:36;;;;;;;;;;;19.20;1.00;;;;;;4993384;28;19910;-66
2021/07/24 00:40:02;;;;;;;;;;;19.20;1.00;;;;;;4993712;28;19914;-66
2021/07/24 00:42:29;;;;;;;;;;;19.20;1.00;;;;;;4994181;28;20286;-66
2021/07/24 00:44:57;;;;;;;;;;;19.10;99.90;;;;;;4993568;28;20005;-67
2021/07/24 00:47:28;;;;;;;;;;;19.10;99.90;;;;;;4993570;28;19909;-66
2021/07/24 00:49:54;;;;;;;;;;;;;;;;;;4993690;28;19917;-66
2021/07/24 00:52:19;;;;;;;;;;;19.00;1.00;;;;;;4993910;28;20283;-66
2021/07/24 00:54:45;;;;;;;;;;;19.00;99.90;;;;;;4993875;28;19921;-65
2021/07/24 00:57:15;;;;;;;;;;;19.00;1.00;;;;;;4993562;28;19909;-66
2021/07/24 00:59:41;;;;;;;;;;;19.00;1.00;;;;;;4993224;28;19910;-66
2021/07/24 01:02:06;;;;;;;;;;;19.10;99.90;;;;;;4993888;28;19920;-66
2021/07/24 01:04:32;;;;;;;;;;;19.00;1.00;;;;;;4993536;28;19960;-66
2021/07/24 01:06:59;;;;;;;;;;;19.00;99.90;;;;;;4993633;28;20356;-66
2021/07/24 01:09:24;;;;;;;;;;;18.90;1.00;;;;;;4993024;28;19917;-66
2021/07/24 01:11:50;;;;;;;;;;;18.90;1.00;;;;;;4993322;28;19914;-66
2021/07/24 01:14:16;;;;;;;;;;;18.90;1.00;;;;;;4993025;28;19910;-66
2021/07/24 01:16:41;;;;;;;;;;;18.90;99.90;;;;;;4993119;28;20390;-67
2021/07/24 01:19:07;;;;;;;;;;;18.80;1.00;;;;;;4992647;28;20371;-66
2021/07/24 01:21:32;;;;;;;;;;;18.80;1.00;;;;;;4991684;28;19910;-66
2021/07/24 01:23:58;;;;;;;;;;;18.80;1.00;;;;;;4992982;28;20012;-66
2021/07/24 01:26:24;;;;;;;;;;;18.70;1.00;;;;;;4993117;28;20005;-66
2021/07/24 01:28:50;;;;;;;;;;;18.70;1.00;;;;;;4992305;28;19910;-66
2021/07/24 01:31:16;;;;;;;;;;;18.60;1.00;;;;;;4993287;28;20001;-66
2021/07/24 01:33:41;;;;;;;;;;;18.60;1.00;;;;;;4992863;28;20434;-67
2021/07/24 01:36:07;;;;;;;;;;;18.50;1.00;;;;;;4993404;28;19918;-66
2021/07/24 01:38:36;;;;;;;;;;;18.50;1.00;;;;;;4992844;28;19956;-66
2021/07/24 01:41:04;;;;;;;;;;;18.50;1.00;;;;;;4993039;28;20009;-66
2021/07/24 01:43:29;;;;;;;;;;;18.50;99.20;;;;;;4993234;28;19910;-66
2021/07/24 01:45:54;;;;;;;;;;;18.50;99.90;;;;;;4990956;28;19964;-66
2021/07/24 01:48:33;;;;;;;;;;;18.40;99.90;;;;;;4992711;28;20032;-66
2021/07/24 01:53:43;;;;;;;;;;;18.30;99.90;;;;;;4992858;28;20365;-65
2021/07/24 01:56:09;;;;;;;;;;;18.30;1.00;;;;;;4992827;28;20536;-65
2021/07/24 01:58:36;;;;;;;;;;;18.30;1.00;;;;;;4992365;28;20366;-65
2021/07/24 02:01:02;;;;;;;;;;;18.20;1.00;;;;;;4992588;28;19910;-66
2021/07/24 02:03:49;;;;;;;;;;;18.10;1.00;;;;;;4992713;28;19910;-66
2021/07/24 02:06:16;;;;;;;;;;;18.00;1.00;;;;;;4992630;28;19917;-65
2021/07/24 02:08:48;;;;;;;;;;;18.00;14.90;;;;;;4992187;28;20008;-66
2021/07/24 02:11:14;;;;;;;;;;;18.00;28.00;;;;;;4992788;28;19914;-66
2021/07/24 02:13:40;;;;;;;;;;;18.00;90.20;;;;;;4992221;28;20382;-65
2021/07/24 02:16:06;;;;;;;;;;;17.90;99.90;;;;;;4992300;28;20299;-66
2021/07/24 02:18:32;;;;;;;;;;;17.90;99.90;;;;;;4992006;28;19921;-66
2021/07/24 02:20:58;;;;;;;;;;;17.90;99.90;;;;;;4992385;28;20322;-66
2021/07/24 02:23:23;;;;;;;;;;;17.90;99.90;;;;;;4992632;28;19910;-65
2021/07/24 02:25:49;;;;;;;;;;;17.90;99.90;;;;;;4992091;28;19924;-65
2021/07/24 02:28:15;;;;;;;;;;;17.90;99.90;;;;;;4990177;28;19960;-66
2021/07/24 02:30:40;;;;;;;;;;;17.90;99.90;;;;;;4991676;28;19920;-65
2021/07/24 02:33:06;;;;;;;;;;;17.90;99.90;;;;;;4992274;28;19974;-66
2021/07/24 02:35:31;;;;;;;;;;;18.00;99.90;;;;;;4991987;28;19914;-65
2021/07/24 02:37:57;;;;;;;;;;;18.00;36.60;;;;;;4991312;28;20302;-66
2021/07/24 02:40:23;;;;;;;;;;;17.90;8.40;;;;;;4990682;28;19909;-66
2021/07/24 02:42:48;;;;;;;;;;;17.90;1.00;;;;;;4991801;28;19910;-66
2021/07/24 02:45:14;;;;;;;;;;;17.80;27.30;;;;;;4991469;28;19914;-66
2021/07/24 02:47:39;;;;;;;;;;;17.80;83.70;;;;;;4991166;28;20287;-65
2021/07/24 02:50:05;;;;;;;;;;;17.80;99.90;;;;;;4991610;28;19917;-66
2021/07/24 02:52:31;;;;;;;;;;;17.80;99.90;;;;;;4991863;28;19921;-66
2021/07/24 02:54:56;;;;;;;;;;;17.80;99.90;;;;;;4991617;28;19910;-66
2021/07/24 02:57:22;;;;;;;;;;;17.80;99.90;;;;;;4991032;28;19996;-65
2021/07/24 02:59:47;;;;;;;;;;;17.70;99.90;;;;;;4991183;28;19914;-66
2021/07/24 03:02:17;;;;;;;;;;;17.80;99.90;;;;;;4991431;28;19909;-66
2021/07/24 03:04:42;;;;;;;;;;;17.80;99.90;;;;;;4991602;28;19918;-66
2021/07/24 03:07:08;;;;;;;;;;;17.80;99.90;;;;;;4991350;28;20415;-65
2021/07/24 03:09:34;;;;;;;;;;;17.70;99.90;;;;;;4991067;28;19949;-66
2021/07/24 03:11:59;;;;;;;;;;;17.70;99.90;;;;;;4991868;28;20370;-66
2021/07/24 03:14:25;;;;;;;;;;;17.70;99.90;;;;;;4990556;28;19969;-65
2021/07/24 03:16:50;;;;;;;;;;;17.80;99.90;;;;;;4991504;28;20286;-65
2021/07/24 03:19:16;;;;;;;;;;;17.80;99.90;;;;;;4990827;28;19965;-66
2021/07/24 03:21:41;;;;;;;;;;;17.80;99.90;;;;;;4991436;28;19969;-66
2021/07/24 03:24:06;;;;;;;;;;;17.80;99.90;;;;;;4991763;28;19910;-65
2021/07/24 03:26:32;;;;;;;;;;;17.80;99.90;;;;;;4990944;28;19953;-66
2021/07/24 03:28:58;;;;;;;;;;;17.80;99.90;;;;;;4990125;28;20313;-66
2021/07/24 03:31:23;;;;;;;;;;;17.80;99.90;;;;;;4991172;28;20375;-66
2021/07/24 03:33:49;;;;;;;;;;;17.90;99.90;;;;;;4991446;28;19917;-66
2021/07/24 03:36:14;;;;;;;;;;;17.80;99.90;;;;;;4991443;28;19910;-66
2021/07/24 03:38:40;;;;;;;;;;;17.80;99.90;;;;;;4990602;28;19921;-65
2021/07/24 03:41:05;;;;;;;;;;;17.80;99.90;;;;;;4995544;28;19910;-65
2021/07/24 03:43:31;;;;;;;;;;;17.90;99.90;;;;;;4995719;28;20402;-64
2021/07/24 03:45:57;;;;;;;;;;;17.90;99.90;;;;;;4995031;28;19930;-64
2021/07/24 03:48:22;;;;;;;;;;;17.90;99.90;;;;;;4994655;28;19910;-65
2021/07/24 03:50:48;;;;;;;;;;;18.00;99.90;;;;;;4994996;28;19920;-65
2021/07/24 03:53:13;;;;;;;;;;;18.00;99.90;;;;;;4995218;28;19924;-66
2021/07/24 03:55:39;;;;;;;;;;;18.10;27.60;;;;;;4995087;28;19957;-66
2021/07/24 03:58:04;;;;;;;;;;;18.20;1.00;;;;;;4994205;28;19913;-66
2021/07/24 04:00:43;;;;;;;;;;;18.20;1.00;;;;;;4994187;28;19996;-66
2021/07/24 04:03:10;;;;;;;;;;;18.40;1.00;;;;;;4994912;28;19955;-66
2021/07/24 04:05:39;;;;;;;;;;;18.40;99.90;;;;;;4994813;28;20000;-66
2021/07/24 04:08:05;;;;;;;;;;;18.50;99.90;;;;;;4994197;28;20355;-66
2021/07/24 04:10:32;;;;;;;;;;;18.60;95.50;;;;;;4994636;28;19914;-66
2021/07/24 04:12:58;;;;;;;;;;;18.70;1.00;;;;;;4994455;28;19921;-66
2021/07/24 04:15:23;;;;;;;;;;;18.80;1.00;;;;;;4994053;28;19910;-66
2021/07/24 04:17:49;;;;;;;;;;;18.80;1.00;;;;;;4994096;28;19910;-66
2021/07/24 04:20:15;;;;;;;;;;;18.90;1.00;;;;;;4994504;28;19910;-66
2021/07/24 04:22:41;;;;;;;;;;;18.90;99.90;;;;;;4994642;28;19952;-66
2021/07/24 04:25:07;;;;;;;;;;;19.00;99.90;;;;;;4994136;28;20387;-67
2021/07/24 04:27:32;;;;;;;;;;;19.10;1.00;;;;;;4994331;28;20381;-65
2021/07/24 04:29:58;;;;;;;;;;;19.30;1.00;;;;;;4993814;28;19917;-65
2021/07/24 04:32:24;;;;;;;;;;;19.40;2.50;;;;;;4994754;28;19914;-65
2021/07/24 04:34:49;;;;;;;;;;;19.60;1.00;;;;;;4993928;28;19941;-66
2021/07/24 04:37:15;;;;;;;;;;;19.70;99.90;;;;;;4993731;28;19910;-65
2021/07/24 04:39:41;;;;;;;;;;;19.90;1.00;;;;;;4993905;28;20409;-65
2021/07/24 04:42:06;;;;;;;;;;;20.20;1.00;;;;;;4994111;28;19917;-66
2021/07/24 04:44:32;;;;;;;;;;;20.40;99.90;;;;;;4993692;28;19924;-65
2021/07/24 04:46:57;;;;;;;;;;;20.70;1.00;;;;;;4993970;28;19956;-66
2021/07/24 04:49:23;;;;;;;;;;;21.00;99.90;;;;;;4993118;28;19910;-66
2021/07/24 04:51:48;;;;;;;;;;;21.20;99.90;;;;;;4993774;28;19914;-67
2021/07/24 04:54:14;;;;;;;;;;;21.50;1.00;;;;;;4993955;28;20008;-66
2021/07/24 04:56:40;;;;;;;;;;;21.70;1.00;;;;;;4993938;28;19914;-66
2021/07/24 04:59:06;;;;;;;;;;;21.90;1.00;;;;;;4991422;28;20334;-67
2021/07/24 05:01:33;;;;;;;;;;;22.00;1.00;;;;;;4994005;28;19914;-66
2021/07/24 05:04:00;;;;;;;;;;;22.20;1.00;;;;;;4993831;28;19917;-66
2021/07/24 05:06:25;;;;;;;;;;;22.30;1.00;;;;;;4993800;28;19996;-66
2021/07/24 05:08:51;;;;;;;;;;;22.20;99.90;;;;;;4992889;28;19921;-66
2021/07/24 05:11:16;;;;;;;;;;;22.10;99.90;;;;;;4993222;28;20072;-66
2021/07/24 05:13:42;;;;;;;;;;;21.90;99.90;;;;;;4993154;28;19910;-65
2021/07/24 05:16:07;;;;;;;;;;;21.80;99.90;;;;;;4993722;28;19916;-65
2021/07/24 05:18:33;;;;;;;;;;;21.70;99.90;;;;;;4993116;28;19910;-66
2021/07/24 05:20:58;;;;;;;;;;;21.50;99.90;;;;;;4993548;28;20310;-65
2021/07/24 05:23:24;;;;;;;;;;;21.40;1.00;;;;;;4993304;28;20380;-65
2021/07/24 05:25:50;;;;;;;;;;;21.20;1.00;;;;;;4993200;28;19918;-65
2021/07/24 05:28:15;;;;;;;;;;;21.10;1.00;;;;;;4993022;28;19910;-66
2021/07/24 05:30:41;;;;;;;;;;;20.90;1.00;;;;;;4993224;28;19914;-65
2021/07/24 05:33:06;;;;;;;;;;;20.70;1.00;;;;;;4993592;28;20008;-65
2021/07/24 05:35:32;;;;;;;;;;;20.70;1.00;;;;;;4993154;28;20371;-65
2021/07/24 05:37:58;;;;;;;;;;;20.80;1.00;;;;;;4992809;28;19953;-65
2021/07/24 05:40:23;;;;;;;;;;;21.00;1.00;;;;;;4993470;28;19910;-66
2021/07/24 05:42:49;;;;;;;;;;;21.70;1.00;;;;;;4993830;28;19952;-65
2021/07/24 05:45:14;;;;;;;;;;;22.50;1.00;;;;;;4992382;28;19910;-65
2021/07/24 05:47:40;;;;;;;;;;;23.30;99.90;;;;;;4992515;28;19913;-66
2021/07/24 05:50:05;;;;;;;;;;;23.90;99.90;;;;;;4993322;28;20172;-66
2021/07/24 05:52:31;;;;;;;;;;;24.60;99.90;;;;;;4992694;28;19987;-66
2021/07/24 05:54:56;;;;;;;;;;;25.30;99.90;;;;;;4992844;28;19910;-65
2021/07/24 05:57:22;;;;;;;;;;;25.60;99.90;;;;;;4992113;28;20255;-65
2021/07/24 05:59:48;;;;;;;;;;;25.50;99.90;;;;;;4992528;28;19910;-66
2021/07/24 06:02:14;;;;;;;;;;;25.60;99.90;;;;;;4991759;28;20438;-66
2021/07/24 06:04:39;;;;;;;;;;;26.40;99.90;;;;;;4992511;28;19914;-66
2021/07/24 06:07:05;;;;;;;;;;;27.20;99.90;;;;;;4992639;28;20266;-66
2021/07/24 06:09:31;;;;;;;;;;;27.90;99.90;;;;;;4991751;28;19992;-65
2021/07/24 06:11:57;;;;;;;;;;;28.60;99.90;;;;;;4992282;28;19914;-65
2021/07/24 06:14:22;;;;;;;;;;;29.40;99.90;;;;;;4991871;28;19910;-66
2021/07/24 06:16:48;;;;;;;;;;;30.20;99.90;;;;;;4992317;28;19913;-66
2021/07/24 06:19:14;;;;;;;;;;;30.60;99.90;;;;;;4991781;28;20291;-66
2021/07/24 06:21:39;;;;;;;;;;;31.00;99.90;;;;;;4990590;28;19944;-66
2021/07/24 06:24:05;;;;;;;;;;;30.60;99.90;;;;;;4992070;28;19914;-66
2021/07/24 06:26:30;;;;;;;;;;;29.50;99.90;;;;;;4991968;28;19918;-66
2021/07/24 06:28:56;;;;;;;;;;;28.40;99.90;;;;;;4991108;28;19914;-66
2021/07/24 06:31:21;;;;;;;;;;;27.40;99.90;;;;;;4992100;28;19914;-65
2021/07/24 06:33:47;;;;;;;;;;;26.40;99.90;;;;;;4991715;28;19909;-66
2021/07/24 06:36:12;;;;;;;;;;;25.70;99.90;;;;;;4992100;28;19917;-65
2021/07/24 06:38:37;;;;;;;;;;;25.10;99.90;;;;;;4991956;28;19921;-65
2021/07/24 06:41:04;;;;;;;;;;;24.50;99.90;;;;;;4991901;28;20019;-66
2021/07/24 06:43:29;;;;;;;;;;;24.10;99.90;;;;;;4991848;28;19910;-65
2021/07/24 06:45:55;;;;;;;;;;;23.70;99.90;;;;;;4990878;28;19921;-66
2021/07/24 06:48:20;;;;;;;;;;;23.40;99.90;;;;;;4991205;28;20012;-65
2021/07/24 06:50:46;;;;;;;;;;;23.10;99.90;;;;;;4991688;28;19910;-65
2021/07/24 06:53:11;;;;;;;;;;;22.80;99.90;;;;;;4991681;28;19922;-65
2021/07/24 06:55:37;;;;;;;;;;;22.60;99.90;;;;;;4991506;28;19910;-65
2021/07/24 06:58:02;;;;;;;;;;;22.20;99.90;;;;;;4990733;28;19917;-65
2021/07/24 07:00:31;;;;;;;;;;;21.70;99.90;;;;;;4991233;28;19913;-65
2021/07/24 07:02:58;;;;;;;;;;;21.50;99.90;;;;;;4991685;28;19957;-66
2021/07/24 07:05:24;;;;;;;;;;;21.50;99.90;;;;;;4991313;28;20390;-65
2021/07/24 07:07:49;;;;;;;;;;;21.60;99.90;;;;;;4991091;28;19910;-66
2021/07/24 07:10:15;;;;;;;;;;;21.60;99.90;;;;;;4991354;28;19917;-66
2021/07/24 07:12:40;;;;;;;;;;;21.50;99.90;;;;;;4991129;28;20413;-65
2021/07/24 07:15:08;;;;;;;;;;;21.50;1.00;;;;;;4991081;28;19913;-66
2021/07/24 07:17:34;;;;;;;;;;;21.70;99.90;;;;;;4990781;28;19909;-66
2021/07/24 07:20:00;;;;;;;;;;;22.00;99.90;;;;;;4990973;28;20347;-66
2021/07/24 07:22:25;;;;;;;;;;;22.30;99.90;;;;;;4992189;28;20013;-66
2021/07/24 07:24:50;;;;;;;;;;;22.60;99.90;;;;;;4991500;28;19964;-66
2021/07/24 07:27:16;;;;;;;;;;;23.00;99.90;;;;;;4991041;28;20484;-66
2021/07/24 07:29:43;;;;;;;;;;;23.20;99.90;;;;;;4990959;28;19910;-65
2021/07/24 07:32:08;;;;;;;;;;;23.50;99.90;;;;;;4991417;28;20290;-66
2021/07/24 07:34:34;;;;;;;;;;;23.60;99.90;;;;;;4990988;28;19913;-66
2021/07/24 07:36:59;;;;;;;;;;;23.70;99.90;;;;;;4991201;28;19913;-66
2021/07/24 07:39:25;;;;;;;;;;;23.80;99.90;;;;;;4990760;28;19917;-66
2021/07/24 07:41:50;;;;;;;;;;;24.20;99.90;;;;;;4991310;28;20184;-67
2021/07/24 07:44:15;;;;;;;;;;;25.00;99.90;;;;;;4990502;28;19964;-67
2021/07/24 07:46:41;;;;;;;;;;;25.90;99.90;;;;;;4990972;28;19918;-67
2021/07/24 07:49:06;;;;;;;;;;;26.90;99.90;;;;;;4990410;28;20001;-66
2021/07/24 07:51:32;;;;;;;;;;;27.60;99.90;;;;;;4991422;28;19921;-66
2021/07/24 07:53:57;;;;;;;;;;;28.00;99.90;;;;;;4991134;28;20379;-66
2021/07/24 07:56:23;;;;;;;;;;;28.40;99.90;;;;;;4991000;28;19910;-66
2021/07/24 07:58:48;;;;;;;;;;;28.80;99.90;;;;;;4990059;28;19960;-67
2021/07/24 08:01:14;;;;;;;;;;;28.80;99.90;;;;;;4991071;28;19914;-66
2021/07/24 08:03:40;;;;;;;;;;;28.40;99.90;;;;;;4990671;28;19916;-66
2021/07/24 08:06:05;;;;;;;;;;;28.00;99.90;;;;;;4991119;28;19913;-65
2021/07/24 08:08:31;;;;;;;;;;;27.50;99.90;;;;;;4989941;28;20298;-66
2021/07/24 08:10:56;;;;;;;;;;;26.90;99.90;;;;;;4990801;28;19956;-66
2021/07/24 08:13:22;;;;;;;;;;;26.50;99.90;;;;;;4990815;28;20427;-66
2021/07/24 08:15:48;;;;;;;;;;;26.20;99.90;;;;;;4990520;28;19933;-67
2021/07/24 08:18:14;;;;;;;;;;;25.90;99.90;;;;;;4990196;28;19914;-66
2021/07/24 08:20:40;;;;;;;;;;;25.10;99.90;;;;;;4990523;28;19914;-66
2021/07/24 08:23:10;;;;;;;;;;;24.60;99.90;;;;;;4990893;28;20578;-65
2021/07/24 08:25:39;;;;;;;;;;;24.00;99.90;;;;;;4992205;28;19914;-66
2021/07/24 08:28:05;;;;;;;;;;;23.50;99.90;;;;;;4994248;28;19917;-66
2021/07/24 08:30:31;;;;;;;;;;;23.20;99.90;;;;;;4994298;28;19910;-65
2021/07/24 08:32:57;;;;;;;;;;;23.00;99.90;;;;;;4994452;28;19924;-66
2021/07/24 08:35:23;;;;;;;;;;;22.80;99.90;;;;;;4994357;28;19910;-66
2021/07/24 08:37:48;;;;;;;;;;;22.60;99.90;;;;;;4993558;28;20012;-66
2021/07/24 08:40:14;;;;;;;;;;;22.40;1.00;;;;;;4994034;28;20605;-66
2021/07/24 08:42:41;;;;;;;;;;;22.20;1.00;;;;;;4993850;28;20012;-66
2021/07/24 08:45:07;;;;;;;;;;;22.20;99.90;;;;;;4993523;28;19910;-66
2021/07/24 08:47:32;;;;;;;;;;;22.20;99.90;;;;;;4993090;28;20289;-66
2021/07/24 08:49:59;;;;;;;;;;;22.10;1.00;;;;;;4993968;28;19913;-66
2021/07/24 08:52:29;;;;;;;;;;;22.10;1.00;;;;;;4993671;28;19914;-66
2021/07/24 08:54:55;;;;;;;;;;;22.00;1.00;;;;;;4993704;28;19910;-66
2021/07/24 08:57:24;;;;;;;;;;;21.90;1.00;;;;;;4993374;28;20374;-66
2021/07/24 08:59:50;;;;;;;;;;;21.80;1.00;;;;;;4992897;28;20351;-66
2021/07/24 09:02:19;;;;;;;;;;;21.70;99.90;;;;;;4993861;28;19921;-66
2021/07/24 09:04:46;;;;;;;;;;;21.50;1.00;;;;;;4993680;28;20334;-67
2021/07/24 09:07:11;;;;;;;;;;;21.40;99.90;;;;;;4993254;28;19925;-66
2021/07/24 09:09:37;;;;;;;;;;;21.50;1.00;;;;;;4993148;28;20379;-67
2021/07/24 09:12:03;;;;;;;;;;;21.50;1.00;;;;;;4993689;28;19914;-66
2021/07/24 09:14:29;;;;;;;;;;;21.60;1.00;;;;;;4993110;28;19917;-67
2021/07/24 09:16:54;;;;;;;;;;;21.60;1.00;;;;;;4993645;28;20376;-67
2021/07/24 09:19:20;;;;;;;;;;;21.90;99.90;;;;;;4992869;28;19914;-66
2021/07/24 09:21:46;;;;;;;;;;;22.10;1.00;;;;;;4993489;28;19917;-66
2021/07/24 09:24:26;;;;;;;;;;;22.40;1.00;;;;;;4993273;28;19913;-67
2021/07/24 09:26:51;;;;;;;;;;;22.80;1.00;;;;;;4993186;28;19965;-67
2021/07/24 09:29:18;;;;;;;;;;;23.30;99.90;;;;;;4991706;28;19956;-66
2021/07/24 09:31:44;;;;;;;;;;;24.00;1.00;;;;;;4993217;28;19921;-67
2021/07/24 09:34:10;;;;;;;;;;;25.80;1.00;;;;;;4993064;28;20008;-67
2021/07/24 09:36:36;;;;;;;;;;;27.70;99.90;;;;;;4993363;28;20099;-65
2021/07/24 09:39:15;;;;;;;;;;;28.40;99.90;;;;;;4992104;28;19924;-67
2021/07/24 09:41:47;;;;;;;;;;;29.00;99.90;;;;;;4992863;28;19910;-67
2021/07/24 09:44:42;;;;;;;;;;;29.80;99.90;;;;;;4992854;28;19917;-67
2021/07/24 09:47:08;;;;;;;;;;;30.40;99.90;;;;;;4979362;28;19916;-67
2021/07/24 09:49:35;;;;;;;;;;;30.50;99.90;;;;;;4992371;28;19910;-67
2021/07/24 09:52:11;;;;;;;;;;;29.80;99.90;;;;;;4992699;28;19945;-67
2021/07/24 09:54:37;;;;;;;;;;;29.70;99.90;;;;;;4993286;28;19910;-67
2021/07/24 09:57:02;;;;;;;;;;;29.30;99.90;;;;;;4992761;28;19910;-67
2021/07/24 09:59:29;;;;;;;;;;;28.90;99.90;;;;;;4991130;28;19961;-66
2021/07/24 10:01:57;;;;;;;;;;;28.50;99.90;;;;;;4992784;28;19921;-67
2021/07/24 10:04:27;;;;;;;;;;;28.00;99.90;;;;;;4992528;28;19980;-67
2021/07/24 10:06:56;;;;;;;;;;;27.70;99.90;;;;;;4992541;28;19937;-67
2021/07/24 10:09:25;;;;;;;;;;;27.50;99.90;;;;;;4991636;28;19910;-66
2021/07/24 10:11:54;;;;;;;;;;;27.00;99.90;;;;;;4992556;28;20298;-66
2021/07/24 10:14:20;;;;;;;;;;;26.70;99.90;;;;;;4992234;28;20040;-66
2021/07/24 10:16:46;;;;;;;;;;;26.30;99.90;;;;;;4992485;28;19996;-66
2021/07/24 10:19:12;;;;;;;;;;;25.90;99.90;;;;;;4991409;28;19973;-66
2021/07/24 10:21:37;;;;;;;;;;;25.50;99.90;;;;;;4992021;28;20371;-67
2021/07/24 10:24:03;;;;;;;;;;;25.10;1.00;;;;;;4992239;28;19996;-67
2021/07/24 10:26:31;;;;;;;;;;;24.80;1.00;;;;;;4992845;28;20004;-66
2021/07/24 10:29:07;;;;;;;;;;;24.50;99.90;;;;;;4990906;28;20391;-66
2021/07/24 10:31:52;;;;;;;;;;;24.40;1.00;;;;;;4991635;28;19917;-66
2021/07/24 10:34:23;;;;;;;;;;;24.20;1.00;;;;;;4992136;28;20001;-65
2021/07/24 10:36:51;;;;;;;;;;;24.10;99.90;;;;;;4991035;28;20414;-66
2021/07/24 10:39:16;;;;;;;;;;;24.10;99.90;;;;;;4990961;28;19964;-67
2021/07/24 10:41:45;;;;;;;;;;;24.20;99.90;;;;;;4991487;28;19913;-66
2021/07/24 10:44:12;;;;;;;;;;;24.20;99.90;;;;;;4991260;28;19910;-66
2021/07/24 10:46:40;;;;;;;;;;;24.30;40.00;;;;;;4991998;28;20247;-66
2021/07/24 10:49:26;;;;;;;;;;;24.30;1.00;;;;;;4990807;28;19910;-65
2021/07/24 10:51:57;;;;;;;;;;;24.40;1.00;;;;;;4960526;28;19918;-65
2021/07/24 10:54:23;;;;;;;;;;;24.60;1.00;;;;;;4991504;28;19964;-66
2021/07/24 10:56:49;;;;;;;;;;;24.80;1.00;;;;;;4991425;28;19914;-66
2021/07/24 10:59:14;;;;;;;;;;;25.00;1.00;;;;;;4990315;28;19937;-66
2021/07/24 11:01:47;;;;;;;;;;;25.20;99.90;;;;;;4991323;28;19916;-65
2021/07/24 11:04:30;;;;;;;;;;;25.40;99.90;;;;;;4991110;28;20032;-66
2021/07/24 11:07:14;;;;;;;;;;;25.50;1.00;;;;;;4991191;28;19909;-66
2021/07/24 11:09:39;;;;;;;;;;;25.50;1.00;;;;;;4990615;28;19972;-66
2021/07/24 11:12:09;;;;;;;;;;;25.00;48.10;;;;;;4991050;28;19914;-66
2021/07/24 11:14:38;;;;;;;;;;;24.50;99.90;;;;;;4991015;28;19914;-65
2021/07/24 11:17:03;;;;;;;;;;;24.30;99.90;;;;;;4991168;28;19972;-66
2021/07/24 11:19:29;;;;;;;;;;;24.30;1.00;;;;;;4990657;28;19961;-65
2021/07/24 11:22:13;;;;;;;;;;;24.20;1.00;;;;;;4990856;28;19913;-66
2021/07/24 11:24:39;;;;;;;;;;;24.20;99.90;;;;;;4991382;28;19910;-66
2021/07/24 11:27:04;;;;;;;;;;;24.10;1.00;;;;;;4989526;28;19918;-66
2021/07/24 11:29:30;;;;;;;;;;;24.00;99.90;;;;;;4990037;28;20286;-66
2021/07/24 11:31:59;;;;;;;;;;;23.80;1.00;;;;;;4990958;28;20331;-66
2021/07/24 11:34:25;;;;;;;;;;;23.70;1.00;;;;;;4991150;28;20363;-66
2021/07/24 11:36:51;;;;;;;;;;;23.60;99.90;;;;;;4991222;28;19914;-66
2021/07/24 11:39:22;;;;;;;;;;;23.50;80.50;;;;;;4990862;28;19917;-66
2021/07/24 11:41:47;;;;;;;;;;;23.50;27.10;;;;;;4991173;28;19909;-66
2021/07/24 11:44:22;;;;;;;;;;;23.50;1.00;;;;;;4990425;28;19956;-66
2021/07/24 11:46:54;;;;;;;;;;;23.50;1.00;;;;;;4991047;28;19996;-66
2021/07/24 11:49:19;;;;;;;;;;;23.50;1.00;;;;;;4990367;28;20245;-66
2021/07/24 11:51:46;;;;;;;;;;;23.50;1.00;;;;;;4991065;28;19924;-66
2021/07/24 11:54:12;;;;;;;;;;;23.50;99.90;;;;;;4990701;28;19921;-66
2021/07/24 11:56:37;;;;;;;;;;;23.50;99.90;;;;;;4991084;28;19914;-66
2021/07/24 11:59:03;;;;;;;;;;;23.50;92.00;;;;;;4989871;28;19914;-66
2021/07/24 12:01:28;;;;;;;;;;;23.40;99.90;;;;;;4994023;28;20279;-66
2021/07/24 12:04:03;;;;;;;;;;;23.30;1.00;;;;;;4994833;28;20009;-64
2021/07/24 12:06:28;;;;;;;;;;;23.20;1.00;;;;;;4994981;28;20437;-66
2021/07/24 12:08:54;;;;;;;;;;;23.10;99.90;;;;;;4994151;28;19914;-66
2021/07/24 12:11:20;;;;;;;;;;;23.00;1.00;;;;;;4994607;28;19910;-65
2021/07/24 12:13:45;;;;;;;;;;;22.80;1.00;;;;;;4994431;28;19921;-66
2021/07/24 12:16:12;;;;;;;;;;;22.70;1.00;;;;;;4994448;28;19910;-66
2021/07/24 12:18:44;;;;;;;;;;;22.70;99.90;;;;;;4994154;28;19909;-66
2021/07/24 12:21:11;;;;;;;;;;;22.60;1.00;;;;;;4994674;28;19996;-65
2021/07/24 12:23:42;;;;;;;;;;;22.60;99.90;;;;;;4994562;28;19914;-66
2021/07/24 12:26:08;;;;;;;;;;;22.60;1.00;;;;;;4994484;28;19928;-65
2021/07/24 12:28:34;;;;;;;;;;;22.50;1.00;;;;;;4993461;28;19910;-66
2021/07/24 12:31:22;;;;;;;;;;;22.50;99.90;;;;;;4993886;28;19956;-66
2021/07/24 12:33:48;;;;;;;;;;;22.40;99.90;;;;;;4994425;28;19917;-66
2021/07/24 12:36:14;;;;;;;;;;;22.20;1.00;;;;;;4994129;28;19968;-65
2021/07/24 12:38:40;;;;;;;;;;;22.20;1.00;;;;;;4993414;28;19914;-66
2021/07/24 12:41:06;;;;;;;;;;;22.30;74.20;;;;;;4994487;28;19917;-66
2021/07/24 12:43:36;;;;;;;;;;;22.40;1.00;;;;;;4994114;28;19997;-65
2021/07/24 12:46:17;;;;;;;;;;;22.50;1.00;;;;;;4993650;28;19936;-66
2021/07/24 12:48:45;;;;;;;;;;;22.50;1.00;;;;;;4992980;28;20363;-65
2021/07/24 12:51:14;;;;;;;;;;;22.70;1.00;;;;;;4993930;28;19988;-66
2021/07/24 12:53:45;;;;;;;;;;;22.80;1.00;;;;;;4993776;28;19914;-66
2021/07/24 12:56:11;;;;;;;;;;;22.90;1.00;;;;;;4993945;28;19918;-66
2021/07/24 12:58:37;;;;;;;;;;;23.00;99.90;;;;;;4993254;28;19917;-66
2021/07/24 13:01:09;;;;;;;;;;;23.00;99.90;;;;;;4993394;28;19949;-66
2021/07/24 13:03:34;;;;;;;;;;;23.00;1.00;;;;;;4993758;28;19910;-65
2021/07/24 13:06:00;;;;;;;;;;;23.10;45.20;;;;;;4993290;28;20052;-66
2021/07/24 13:08:26;;;;;;;;;;;23.10;1.00;;;;;;4993453;28;19910;-66
2021/07/24 13:10:51;;;;;;;;;;;23.20;99.90;;;;;;4992807;28;19914;-66
2021/07/24 13:13:17;;;;;;;;;;;23.30;1.00;;;;;;4993580;28;20016;-66
2021/07/24 13:15:42;;;;;;;;;;;23.40;1.00;;;;;;4993025;28;20398;-66
2021/07/24 13:18:08;;;;;;;;;;;23.60;99.90;;;;;;4992531;28;19910;-65
2021/07/24 13:20:34;;;;;;;;;;;24.10;1.00;;;;;;4993224;28;19997;-66
2021/07/24 13:23:00;;;;;;;;;;;24.70;1.00;;;;;;4993006;28;19959;-66
2021/07/24 13:25:43;;;;;;;;;;;25.30;1.00;;;;;;4992995;28;19914;-66
2021/07/24 13:28:15;;;;;;;;;;;25.90;99.90;;;;;;4993168;28;19917;-67
2021/07/24 13:30:47;;;;;;;;;;;26.40;1.00;;;;;;4992378;28;20282;-66
2021/07/24 13:33:13;;;;;;;;;;;26.80;99.90;;;;;;4992882;28;19972;-64
2021/07/24 13:35:40;;;;;;;;;;;27.00;1.00;;;;;;4992957;28;19910;-66
2021/07/24 13:38:05;;;;;;;;;;;27.10;1.00;;;;;;4992679;28;19928;-66
2021/07/24 13:40:31;;;;;;;;;;;27.30;1.00;;;;;;4993283;28;19918;-66
2021/07/24 13:43:00;;;;;;;;;;;27.50;1.00;;;;;;4992751;28;19909;-66
2021/07/24 13:45:26;;;;;;;;;;;27.60;1.00;;;;;;4992239;28;19914;-66
2021/07/24 13:47:52;;;;;;;;;;;27.60;99.90;;;;;;4992410;28;19968;-66
2021/07/24 13:50:17;;;;;;;;;;;27.60;99.90;;;;;;4992674;28;20375;-66
2021/07/24 13:52:43;;;;;;;;;;;27.60;99.90;;;;;;4993241;28;19914;-66
2021/07/24 13:55:08;;;;;;;;;;;27.60;99.90;;;;;;4992483;28;20363;-66
2021/07/24 13:57:37;;;;;;;;;;;27.60;99.90;;;;;;4992481;28;19913;-67
2021/07/24 14:00:06;;;;;;;;;;;27.70;99.90;;;;;;4992483;28;20375;-65
2021/07/24 14:02:32;;;;;;;;;;;27.90;99.90;;;;;;4992913;28;19910;-66
2021/07/24 14:04:58;;;;;;;;;;;28.10;99.90;;;;;;4992349;28;19910;-66
2021/07/24 14:07:24;;;;;;;;;;;28.30;99.90;;;;;;4991967;28;19910;-66
2021/07/24 14:09:49;;;;;;;;;;;28.40;99.90;;;;;;4992373;28;20331;-66
2021/07/24 14:12:14;;;;;;;;;;;28.40;99.90;;;;;;4992484;28;19914;-66
2021/07/24 14:14:40;;;;;;;;;;;28.40;99.90;;;;;;4991953;28;20387;-66
2021/07/24 14:17:05;;;;;;;;;;;28.30;99.90;;;;;;4992286;28;20004;-66
2021/07/24 14:19:31;;;;;;;;;;;28.30;99.90;;;;;;4991536;28;19965;-66
2021/07/24 14:21:56;;;;;;;;;;;28.10;99.90;;;;;;4992246;28;19910;-66